AirNav   Air Wisconsin Up To $57,000 Bonus
 
 1459 users online  

WA77 Enumclaw Airport
Enumclaw, Washington, USA

GOING TO ENUMCLAW?


FAA INFORMATION EFFECTIVE 02 DECEMBER 2021

Location

FAA Identifier: WA77
Lat/Long: 47-11-44.3650N 122-01-19.4020W
47-11.739417N 122-01.323367W
47.1956569,-122.0220561
(estimated)
Elevation: 738 ft. / 225 m (estimated)
Variation: 20E (1985)
From city: 1 mile SW of ENUMCLAW, WA
Time zone: UTC -8 (UTC -7 during Daylight Saving Time)
Zip code: 98022

Airport Operations

Airport use: Private use. Permission required prior to landing
Activation date: 04/1943
Control tower: no
ARTCC: SEATTLE CENTER
FSS: SEATTLE FLIGHT SERVICE STATION
Attendance: MON-FRI 0900-1700
Wind indicator: yes
Segmented circle: no

Airport Communications

WX AWOS-3 at PLU (12 nm SW): 128.575 (253-848-2748)
WX ASOS at TCM (19 nm W): PHONE 253-982-3434
WX ASOS at SEA (19 nm NW): PHONE 206-214-2592
WX ASOS at RNT (20 nm NW): 126.95 (425-255-6080)

Nearby radio navigation aids

VOR radial/distance  VOR name  Freq  Var
SEAr122/18.5SEATTLE VORTAC116.8019E
OLMr050/38.4OLYMPIA VORTAC113.4019E

Airport Services

Parking: hangars
Bulk oxygen: NONE

Runway Information

Runway 7/25

Dimensions: 1800 x 25 ft. / 549 x 8 m
Surface: turf/gravel
RUNWAY 7  RUNWAY 25
Traffic pattern: rightleft
Displaced threshold: no150 ft.
Obstructions: tree, 2700 ft. from runway, 33:1 slope to clear
+5' FENCE AT THRS OF BOTH RWY 7 AND 25.
trees, 300 ft. from runway, 6:1 slope to clear

Airport Ownership and Management from official FAA records

Ownership: Privately-owned
Owner: RANDALL PETITE
45101 - 244TH AVE., S.E.
ENUMCLAW, WA 98022
Phone 253-686-6592

Airport Operational Statistics

Aircraft based on the field: 41
Single engine airplanes: 40
Multi engine airplanes: 1
    
Aircraft operations: avg 120/week
84% local general aviation
16% transient general aviation

Additional Remarks

FOR CD CTC SEATTLE APCH AT 206-214-4794.

Instrument Procedures

There are no published instrument procedures at WA77.

Some nearby airports with instrument procedures:

S50 - Auburn Municipal Airport (11 nm NW)
KPLU - Pierce County Airport - Thun Field (12 nm SW)
KTCM - McChord Field Airport (Joint Base Lewis-McChord) (19 nm W)
KSEA - Seattle-Tacoma International Airport (19 nm NW)
KRNT - Renton Municipal Airport (20 nm NW)
 
Loc | Ops | Rwys | IFR | FBO | Links
Com | Nav | Svcs | Stats | Notes
Area around WA77 (Enumclaw Airport)
 
Road maps at: MapQuest Bing Google
 
Aerial photo
WARNING: Photo may not be current or correct
Aerial photo of WA77 (Enumclaw Airport)
Do you have a better or more recent aerial photo of Enumclaw Airport that you would like to share? If so, please send us your photo.

 
Sectional chart

 
Airport distance calculator
Flying to Enumclaw Airport? Find the distance to fly.

From to WA77

Sunrise and sunset
Times for 06-Dec-2021
 Local
(UTC-8)
 Zulu
(UTC)
Morning civil twilight07:0615:06
Sunrise07:4115:41
Sunset16:1800:18
Evening civil twilight16:5300:53

Current date and time
Zulu (UTC)  06-Dec-2021 17:56:55
Local (UTC-8)  06-Dec-2021 09:56:55
 
METAR
KPLU 
12nm SW 
061735Z AUTO 00000KT 1 1/2SM -DZ BKN003 BKN009 BKN025 04/04 A3006 RMK AO2
KTCM 
19nm W 
061644Z AUTO 00000KT 2SM BR FEW006 OVC021 03/03 A3007 RMK AO2 CIG 003 RWY34 SLP189 $
KSEA 
19nm NW 
061653Z 21006G15KT 3SM -RA BR BKN005 OVC016 04/03 A3005 RMK AO2 RAB24 SLP187 P0000 T00390033
KRNT 
20nm NW 
061653Z 16003KT 4SM BR OVC007 04/03 A3007 RMK AO2 SLP188 T00390028
KTIW 
23nm W 
061653Z 25005KT 1SM BR OVC004 03/03 A3007 RMK AO2 CIG 003V009 SLP188 P0001 T00330033
KGRF 
24nm W 
061637Z 00000KT 1 7/8SM -DZ BR OVC005 04/02 A3006 RMK AO2A TWR VIS 1 SLP186 $
TAF
KTCM 
19nm W 
061130Z 0611/0711 VRB06KT 9000 -SHRA BKN040 OVC060 610809 QNH3028INS BECMG 0615/0616 18009KT 6000 -SHRA BR OVC010 610309 QNH2994INS BECMG 0623/0624 18009KT 8000 BR VCSH OVC007 QNH2994INS BECMG 0708/0709 18009KT 4800 BR OVC005 QNH2998INS TX06/0622Z TN02/0614Z
KSEA 
19nm NW 
061134Z 0612/0718 14007KT P6SM -RA SCT040 BKN050 FM061300 12005KT 6SM -RASN BR OVC015 FM061900 14004KT 4SM -RA BR OVC008 FM062200 13005KT 4SM BR VCSH OVC010 FM070600 VRB03KT 3SM BR OVC005
NOTAMs
Click for the latest NOTAMs
NOTAMs are issued by the DoD/FAA and will open in a separate window not controlled by AirNav.

 

 
 

Would you like to see your business listed on this page?

 If your business provides an interesting product or service to pilots, flight crews, aircraft, or users of the Enumclaw Airport, you should consider listing it here.  To start the listing process, click on the button below
 
Add a business
 

Other Pages about Enumclaw Airport

Update a link
 
Copyright © AirNav, LLC. All rights reserved. Privacy Policy  Contact